sensor_id;sensor_type;location;lat;lon;timestamp;P1;durP1;ratioP1;P2;durP2;ratioP2
42146;SDS011;27815;43.410;11.852;2022-08-01T03:59:14;1.45;;;0.90;;
42146;SDS011;27815;43.410;11.852;2022-08-01T04:03:42;1.60;;;0.90;;
42146;SDS011;27815;43.410;11.852;2022-08-01T04:08:01;5.32;;;1.48;;
42146;SDS011;27815;43.410;11.852;2022-08-01T04:12:04;1.80;;;1.00;;
42146;SDS011;27815;43.410;11.852;2022-08-01T04:16:13;2.33;;;1.20;;
42146;SDS011;27815;43.410;11.852;2022-08-01T04:20:17;1.80;;;1.00;;
42146;SDS011;27815;43.410;11.852;2022-08-01T04:24:20;1.60;;;1.02;;
42146;SDS011;27815;43.410;11.852;2022-08-01T04:28:26;1.50;;;0.93;;
42146;SDS011;27815;43.410;11.852;2022-08-01T04:32:35;3.50;;;1.05;;
42146;SDS011;27815;43.410;11.852;2022-08-01T04:46:10;1.92;;;1.10;;
42146;SDS011;27815;43.410;11.852;2022-08-01T04:50:15;9.68;;;2.30;;
42146;SDS011;27815;43.410;11.852;2022-08-01T04:54:19;3.65;;;1.15;;
42146;SDS011;27815;43.410;11.852;2022-08-01T04:58:23;1.65;;;0.80;;
42146;SDS011;27815;43.410;11.852;2022-08-01T05:02:26;2.30;;;1.23;;
42146;SDS011;27815;43.410;11.852;2022-08-01T05:06:31;1.90;;;0.95;;
42146;SDS011;27815;43.410;11.852;2022-08-01T05:10:34;2.80;;;0.85;;
42146;SDS011;27815;43.410;11.852;2022-08-01T05:14:37;3.25;;;1.20;;
42146;SDS011;27815;43.410;11.852;2022-08-01T05:18:41;10.00;;;1.50;;
42146;SDS011;27815;43.410;11.852;2022-08-01T05:22:48;1.52;;;1.00;;
42146;SDS011;27815;43.410;11.852;2022-08-01T05:26:52;1.73;;;1.00;;
42146;SDS011;27815;43.410;11.852;2022-08-01T05:30:55;3.58;;;0.98;;
42146;SDS011;27815;43.410;11.852;2022-08-01T05:34:58;3.40;;;0.90;;
42146;SDS011;27815;43.410;11.852;2022-08-01T05:39:02;10.65;;;1.73;;
42146;SDS011;27815;43.410;11.852;2022-08-01T05:43:05;19.35;;;1.95;;
42146;SDS011;27815;43.410;11.852;2022-08-01T05:47:08;2.83;;;0.98;;
42146;SDS011;27815;43.410;11.852;2022-08-01T05:51:13;3.08;;;1.10;;
42146;SDS011;27815;43.410;11.852;2022-08-01T05:55:16;5.00;;;1.88;;
42146;SDS011;27815;43.410;11.852;2022-08-01T05:59:19;5.07;;;2.58;;
42146;SDS011;27815;43.410;11.852;2022-08-01T06:03:23;9.85;;;2.38;;
42146;SDS011;27815;43.410;11.852;2022-08-01T06:07:26;3.47;;;1.60;;
42146;SDS011;27815;43.410;11.852;2022-08-01T06:11:28;3.45;;;1.48;;
42146;SDS011;27815;43.410;11.852;2022-08-01T06:15:34;5.00;;;2.20;;
42146;SDS011;27815;43.410;11.852;2022-08-01T06:19:37;4.90;;;2.35;;
42146;SDS011;27815;43.410;11.852;2022-08-01T06:23:40;9.45;;;2.40;;
42146;SDS011;27815;43.410;11.852;2022-08-01T06:27:44;3.60;;;2.13;;
42146;SDS011;27815;43.410;11.852;2022-08-01T06:31:47;5.03;;;1.75;;
42146;SDS011;27815;43.410;11.852;2022-08-01T06:35:50;8.40;;;1.80;;
42146;SDS011;27815;43.410;11.852;2022-08-01T06:39:53;7.30;;;1.85;;
42146;SDS011;27815;43.410;11.852;2022-08-01T06:43:56;6.25;;;1.73;;
42146;SDS011;27815;43.410;11.852;2022-08-01T06:47:59;7.35;;;1.80;;
42146;SDS011;27815;43.410;11.852;2022-08-01T06:52:02;6.53;;;2.05;;
42146;SDS011;27815;43.410;11.852;2022-08-01T06:56:07;4.32;;;1.27;;
42146;SDS011;27815;43.410;11.852;2022-08-01T07:00:25;1.85;;;1.20;;
42146;SDS011;27815;43.410;11.852;2022-08-01T07:09:49;3.57;;;1.20;;
42146;SDS011;27815;43.410;11.852;2022-08-01T07:14:30;5.65;;;1.42;;
42146;SDS011;27815;43.410;11.852;2022-08-01T07:19:18;8.93;;;2.03;;
42146;SDS011;27815;43.410;11.852;2022-08-01T07:24:34;5.00;;;1.85;;
42146;SDS011;27815;43.410;11.852;2022-08-01T07:29:38;3.28;;;1.48;;
42146;SDS011;27815;43.410;11.852;2022-08-01T07:34:41;3.47;;;1.40;;
42146;SDS011;27815;43.410;11.852;2022-08-01T07:39:46;6.68;;;1.50;;
42146;SDS011;27815;43.410;11.852;2022-08-01T07:44:06;2.85;;;1.27;;
42146;SDS011;27815;43.410;11.852;2022-08-01T07:49:07;1.95;;;1.10;;
42146;SDS011;27815;43.410;11.852;2022-08-01T08:08:25;5.40;;;1.30;;
42146;SDS011;27815;43.410;11.852;2022-08-01T08:18:14;2.80;;;0.98;;
42146;SDS011;27815;43.410;11.852;2022-08-01T08:54:23;2.95;;;0.90;;
42146;SDS011;27815;43.410;11.852;2022-08-01T08:59:47;1.73;;;0.90;;
42146;SDS011;27815;43.410;11.852;2022-08-01T09:04:53;2.58;;;0.90;;
42146;SDS011;27815;43.410;11.852;2022-08-01T09:09:15;1.90;;;0.98;;
42146;SDS011;27815;43.410;11.852;2022-08-01T09:18:41;3.80;;;1.83;;
42146;SDS011;27815;43.410;11.852;2022-08-01T09:22:55;1.95;;;0.90;;
42146;SDS011;27815;43.410;11.852;2022-08-01T09:27:23;2.00;;;0.90;;
42146;SDS011;27815;43.410;11.852;2022-08-01T09:31:46;2.15;;;0.80;;
42146;SDS011;27815;43.410;11.852;2022-08-01T09:36:06;2.10;;;0.80;;
42146;SDS011;27815;43.410;11.852;2022-08-01T09:41:11;1.65;;;0.90;;
42146;SDS011;27815;43.410;11.852;2022-08-01T09:45:31;4.68;;;1.15;;
42146;SDS011;27815;43.410;11.852;2022-08-01T09:49:55;1.95;;;0.90;;
42146;SDS011;27815;43.410;11.852;2022-08-01T09:54:34;1.75;;;0.93;;
42146;SDS011;27815;43.410;11.852;2022-08-01T09:58:53;1.60;;;1.20;;
42146;SDS011;27815;43.410;11.852;2022-08-01T10:03:35;4.13;;;1.00;;
42146;SDS011;27815;43.410;11.852;2022-08-01T10:07:59;1.27;;;0.80;;
42146;SDS011;27815;43.410;11.852;2022-08-01T10:12:57;2.15;;;1.02;;
42146;SDS011;27815;43.410;11.852;2022-08-01T10:17:18;1.58;;;0.75;;
42146;SDS011;27815;43.410;11.852;2022-08-01T10:22:09;3.10;;;1.00;;
42146;SDS011;27815;43.410;11.852;2022-08-01T10:31:41;2.33;;;1.10;;
42146;SDS011;27815;43.410;11.852;2022-08-01T10:36:07;3.22;;;1.02;;
42146;SDS011;27815;43.410;11.852;2022-08-01T10:59:26;2.00;;;1.00;;
42146;SDS011;27815;43.410;11.852;2022-08-01T11:03:57;1.88;;;1.00;;
42146;SDS011;27815;43.410;11.852;2022-08-01T11:08:41;2.10;;;1.10;;
42146;SDS011;27815;43.410;11.852;2022-08-01T11:18:51;2.05;;;0.80;;
42146;SDS011;27815;43.410;11.852;2022-08-01T11:23:17;3.08;;;0.90;;
42146;SDS011;27815;43.410;11.852;2022-08-01T11:27:41;3.00;;;1.20;;
42146;SDS011;27815;43.410;11.852;2022-08-01T11:37:26;1.90;;;1.00;;
42146;SDS011;27815;43.410;11.852;2022-08-01T11:42:47;1.95;;;1.30;;
42146;SDS011;27815;43.410;11.852;2022-08-01T11:57:37;2.30;;;1.05;;
42146;SDS011;27815;43.410;11.852;2022-08-01T12:16:25;2.78;;;1.23;;
42146;SDS011;27815;43.410;11.852;2022-08-01T12:20:48;2.88;;;1.00;;
42146;SDS011;27815;43.410;11.852;2022-08-01T12:25:29;3.42;;;1.00;;
42146;SDS011;27815;43.410;11.852;2022-08-01T12:30:10;2.65;;;1.08;;
42146;SDS011;27815;43.410;11.852;2022-08-01T12:35:28;2.22;;;1.02;;
42146;SDS011;27815;43.410;11.852;2022-08-01T12:40:22;1.67;;;0.90;;
42146;SDS011;27815;43.410;11.852;2022-08-01T12:55:24;2.13;;;1.17;;
42146;SDS011;27815;43.410;11.852;2022-08-01T12:59:47;3.17;;;1.47;;
42146;SDS011;27815;43.410;11.852;2022-08-01T13:15:19;1.35;;;0.90;;
42146;SDS011;27815;43.410;11.852;2022-08-01T13:20:05;2.10;;;1.17;;
42146;SDS011;27815;43.410;11.852;2022-08-01T13:25:15;1.80;;;1.00;;
42146;SDS011;27815;43.410;11.852;2022-08-01T13:30:18;2.35;;;1.02;;
42146;SDS011;27815;43.410;11.852;2022-08-01T13:45:18;2.05;;;1.08;;
42146;SDS011;27815;43.410;11.852;2022-08-01T13:49:59;2.00;;;1.10;;
42146;SDS011;27815;43.410;11.852;2022-08-01T13:54:28;1.70;;;1.10;;
42146;SDS011;27815;43.410;11.852;2022-08-01T13:58:59;2.17;;;1.00;;
42146;SDS011;27815;43.410;11.852;2022-08-01T14:03:19;1.10;;;0.75;;
42146;SDS011;27815;43.410;11.852;2022-08-01T14:08:02;1.48;;;0.90;;
42146;SDS011;27815;43.410;11.852;2022-08-01T14:23:54;1.33;;;1.02;;
42146;SDS011;27815;43.410;11.852;2022-08-01T14:28:12;1.17;;;0.80;;
42146;SDS011;27815;43.410;11.852;2022-08-01T14:32:53;1.52;;;0.93;;
42146;SDS011;27815;43.410;11.852;2022-08-01T14:42:37;3.20;;;0.90;;
42146;SDS011;27815;43.410;11.852;2022-08-01T15:06:54;1.83;;;0.90;;
42146;SDS011;27815;43.410;11.852;2022-08-01T15:11:11;1.08;;;0.70;;
42146;SDS011;27815;43.410;11.852;2022-08-01T15:21:04;1.63;;;0.90;;
42146;SDS011;27815;43.410;11.852;2022-08-01T15:25:30;1.92;;;0.95;;
42146;SDS011;27815;43.410;11.852;2022-08-01T15:40:18;2.20;;;1.13;;
42146;SDS011;27815;43.410;11.852;2022-08-01T15:54:17;1.83;;;1.10;;
42146;SDS011;27815;43.410;11.852;2022-08-01T15:58:37;2.75;;;1.00;;
42146;SDS011;27815;43.410;11.852;2022-08-01T16:28:23;2.92;;;1.60;;
42146;SDS011;27815;43.410;11.852;2022-08-01T16:32:53;2.70;;;1.00;;
42146;SDS011;27815;43.410;11.852;2022-08-01T16:37:34;2.05;;;0.93;;
42146;SDS011;27815;43.410;11.852;2022-08-01T16:42:01;1.95;;;1.10;;
42146;SDS011;27815;43.410;11.852;2022-08-01T16:47:01;2.17;;;1.60;;
42146;SDS011;27815;43.410;11.852;2022-08-01T16:51:47;1.88;;;1.52;;
42146;SDS011;27815;43.410;11.852;2022-08-01T17:06:57;1.73;;;1.20;;
42146;SDS011;27815;43.410;11.852;2022-08-01T17:20:43;4.28;;;1.60;;
42146;SDS011;27815;43.410;11.852;2022-08-01T17:25:38;3.78;;;1.40;;
42146;SDS011;27815;43.410;11.852;2022-08-01T17:45:32;2.17;;;1.23;;
42146;SDS011;27815;43.410;11.852;2022-08-01T18:06:31;2.53;;;1.20;;
42146;SDS011;27815;43.410;11.852;2022-08-01T18:11:17;2.20;;;1.50;;
42146;SDS011;27815;43.410;11.852;2022-08-01T18:16:17;3.45;;;1.13;;
42146;SDS011;27815;43.410;11.852;2022-08-01T18:21:25;3.60;;;1.25;;
42146;SDS011;27815;43.410;11.852;2022-08-01T18:27:06;5.10;;;1.20;;
42146;SDS011;27815;43.410;11.852;2022-08-01T18:32:05;5.38;;;1.27;;
42146;SDS011;27815;43.410;11.852;2022-08-01T18:37:27;4.72;;;1.30;;
42146;SDS011;27815;43.410;11.852;2022-08-01T18:47:07;4.35;;;2.45;;
42146;SDS011;27815;43.410;11.852;2022-08-01T18:51:26;12.90;;;1.45;;
42146;SDS011;27815;43.410;11.852;2022-08-01T18:56:06;3.65;;;1.17;;
42146;SDS011;27815;43.410;11.852;2022-08-01T19:00:46;4.53;;;1.20;;
42146;SDS011;27815;43.410;11.852;2022-08-01T19:05:46;4.53;;;1.33;;
42146;SDS011;27815;43.410;11.852;2022-08-01T19:10:45;3.85;;;1.45;;
42146;SDS011;27815;43.410;11.852;2022-08-01T19:15:42;4.13;;;1.30;;
42146;SDS011;27815;43.410;11.852;2022-08-01T19:20:09;3.28;;;1.35;;
42146;SDS011;27815;43.410;11.852;2022-08-01T19:24:35;3.90;;;1.25;;
42146;SDS011;27815;43.410;11.852;2022-08-01T19:29:00;2.92;;;1.67;;
42146;SDS011;27815;43.410;11.852;2022-08-01T19:33:20;3.13;;;1.30;;
42146;SDS011;27815;43.410;11.852;2022-08-01T19:37:57;1.88;;;1.10;;
42146;SDS011;27815;43.410;11.852;2022-08-01T19:42:17;2.70;;;1.30;;
42146;SDS011;27815;43.410;11.852;2022-08-01T19:47:22;3.20;;;1.27;;
42146;SDS011;27815;43.410;11.852;2022-08-01T20:07:10;2.80;;;1.10;;
42146;SDS011;27815;43.410;11.852;2022-08-01T20:26:24;2.53;;;1.20;;
42146;SDS011;27815;43.410;11.852;2022-08-01T23:17:24;3.03;;;1.23;;
42146;SDS011;27815;43.410;11.852;2022-08-01T23:21:30;2.72;;;1.35;;
42146;SDS011;27815;43.410;11.852;2022-08-01T23:25:34;3.25;;;1.70;;
42146;SDS011;27815;43.410;11.852;2022-08-01T23:29:38;3.42;;;1.50;;
42146;SDS011;27815;43.410;11.852;2022-08-01T23:33:41;3.22;;;1.58;;
42146;SDS011;27815;43.410;11.852;2022-08-01T23:37:44;2.90;;;1.40;;
42146;SDS011;27815;43.410;11.852;2022-08-01T23:41:47;5.13;;;1.35;;
42146;SDS011;27815;43.410;11.852;2022-08-01T23:46:00;5.40;;;1.30;;
42146;SDS011;27815;43.410;11.852;2022-08-01T23:50:06;2.80;;;1.52;;
42146;SDS011;27815;43.410;11.852;2022-08-01T23:54:10;4.13;;;1.40;;
42146;SDS011;27815;43.410;11.852;2022-08-01T23:58:13;3.85;;;1.73;;
